Latest Weather Observations for Adelaide (Kent Town)

IDS60901

Issued at 4:01 pm CDT Friday 24 November 2017 (issued every 10 minutes, with the page automatically refreshed every 10 minutes)

About weather observations | Map of Adelaide area stations | Latest observations for Adelaide area | Other Formats
Station Details ID: 023090 Name: KENT TOWN Lat: -34.92 Lon: 138.62 Height: 48.0 m
Data from the previous 72 hours. | See also: Recent months at Adelaide (Kent Town)
Date/Time
CDT
Temp
°C
App
Temp
°C
Dew
Point
°C
Rel
Hum
%
Delta-T
°C
Wind Press
QNH
hPa
Press
MSL
hPa
Rain since
9am
mm
Dir  Spd
km/h
Gust
km/h
Spd
kts
Gust
kts
24/04:00pm 26.6 27.1 16.6 54 6.2 SSE 9 15 5 8 1010.8 1010.7 0.0
24/03:30pm 26.2 26.4 15.7 52 6.4 S 9 15 5 8 1010.9 1010.8 0.0
24/03:00pm 26.8 26.1 15.5 50 6.9 SW 13 17 7 9 1011.1 1011.0 0.0
24/02:30pm 25.6 24.9 14.4 50 6.7 SW 11 17 6 9 1011.6 1011.5 0.0
24/02:00pm 25.8 25.4 14.0 48 7.0 SW 9 13 5 7 1011.8 1011.7 0.0
24/01:30pm 26.6 25.7 14.8 48 7.1 WSW 13 17 7 9 1012.0 1011.9 0.0
24/01:00pm 26.3 25.8 13.8 46 7.4 SSW 9 15 5 8 1012.3 1012.2 0.0
24/12:30pm 26.9 26.7 14.6 46 7.4 SW 9 17 5 9 1012.5 1012.4 0.0
24/12:00pm 26.2 25.7 14.9 49 6.8 WNW 11 17 6 9 1013.0 1012.9 0.0
24/11:30am 27.2 26.2 13.3 42 8.2 NNE 11 20 6 11 1012.9 1012.8 0.0
24/11:00am 26.8 25.4 12.3 40 8.4 NE 11 19 6 10 1012.9 1012.8 0.0
24/10:30am 27.6 26.2 12.1 38 9.0 ENE 11 20 6 11 1013.0 1012.9 0.0
24/10:00am 27.0 25.7 11.4 37 8.9 NE 9 20 5 11 1013.0 1012.9 0.0
24/09:30am 26.1 25.0 13.1 44 7.6 E 11 20 6 11 1012.9 1012.8 0.0
24/09:00am 24.0 24.7 13.4 51 6.2 NNW 2 11 1 6 1012.9 1012.8 0.8
24/08:30am 23.3 23.1 12.9 52 6.0 E 6 11 3 6 1012.8 1012.7 0.8
24/08:00am 24.4 25.0 13.2 49 6.5 NNE 2 9 1 5 1012.2 1012.1 0.8
24/07:30am 21.8 23.0 13.7 60 4.7 CALM 0 0 0 0 1012.3 1012.2 0.8
24/07:00am 19.7 21.0 14.0 69 3.3 CALM 0 0 0 0 1012.2 1012.1 0.8
24/06:30am 19.3 19.6 13.5 69 3.3 N 4 9 2 5 1011.9 1011.8 0.8
24/06:00am 19.1 19.8 13.3 69 3.3 SSW 2 7 1 4 1011.5 1011.4 0.8
24/05:30am 18.7 19.5 13.6 72 2.9 SSE 2 7 1 4 1011.4 1011.3 0.8
24/05:00am 18.4 19.3 13.9 75 2.6 SSE 2 9 1 5 1011.3 1011.2 0.8
24/04:30am 18.6 19.5 14.1 75 2.6 ESE 2 6 1 3 1011.2 1011.1 0.8
24/04:00am 18.7 20.0 14.2 75 2.6 CALM 0 6 0 3 1011.2 1011.1 0.8
24/03:30am 19.3 20.7 14.3 73 2.9 CALM 0 0 0 0 1011.1 1011.0 0.8
24/03:00am 19.2 20.7 14.6 74 2.7 CALM 0 0 0 0 1011.1 1011.0 0.8
24/02:30am 19.6 21.0 14.4 72 3.0 CALM 0 0 0 0 1011.2 1011.1 0.8
24/02:00am 19.9 20.5 14.2 69 3.3 NE 4 9 2 5 1011.7 1011.6 0.8
24/01:30am 19.7 20.2 14.0 69 3.3 E 4 9 2 5 1011.7 1011.6 0.8
24/01:00am 18.7 20.3 14.8 78 2.3 CALM 0 0 0 0 1012.1 1012.0 0.8
24/12:30am 18.7 20.3 14.8 78 2.3 CALM 0 0 0 0 1012.2 1012.1 0.8
24/12:00am 19.0 20.6 14.9 77 2.4 CALM 0 0 0 0 1012.3 1012.2 0.8
 
Date/Time
CDT
Temp
°C
App
Temp
°C
Dew
Point
°C
Rel
Hum
%
Delta-T
°C
Wind Press
QNH
hPa
Press
MSL
hPa
Rain since
9am
mm
Dir  Spd
km/h
Gust
km/h
Spd
kts
Gust
kts
23/11:30pm 19.4 20.8 14.4 73 2.9 CALM 0 0 0 0 1012.2 1012.1 0.8
23/11:00pm 19.8 20.3 14.1 69 3.3 SSE 4 9 2 5 1012.1 1012.0 0.8
23/10:30pm 20.0 21.1 14.5 70 3.2 SSE 2 6 1 3 1011.9 1011.8 0.8
23/10:00pm 20.1 21.5 14.4 69 3.3 CALM 0 6 0 3 1011.7 1011.6 0.8
23/09:30pm 20.3 21.5 14.9 71 3.2 SSE 2 7 1 4 1011.4 1011.3 0.8
23/09:00pm 20.6 21.3 14.6 68 3.5 NW 4 9 2 5 1011.2 1011.1 0.8
23/08:30pm 20.7 20.6 14.9 69 3.4 SSW 9 17 5 9 1010.7 1010.6 0.8
23/08:00pm 21.1 20.0 14.4 65 3.9 SW 13 20 7 11 1010.5 1010.4 0.8
23/07:30pm 22.4 21.2 15.0 63 4.4 WSW 15 24 8 13 1010.4 1010.3 0.8
23/07:00pm 24.6 24.3 12.7 47 6.9 E 6 9 3 5 1009.9 1009.8 0.8
23/06:30pm 25.0 23.9 12.1 44 7.4 NE 9 19 5 10 1009.6 1009.5 0.8
23/06:00pm 25.6 24.5 12.0 42 7.8 NNE 9 15 5 8 1009.6 1009.5 0.8
23/05:30pm 25.1 23.3 12.0 44 7.5 NE 13 22 7 12 1009.5 1009.4 0.8
23/05:00pm 25.1 22.7 11.3 42 7.8 N 15 22 8 12 1009.7 1009.6 0.8
23/04:30pm 25.8 22.7 10.4 38 8.6 N 17 26 9 14 1009.5 1009.4 0.8
23/04:00pm 25.7 24.5 12.8 44 7.5 NE 11 22 6 12 1009.5 1009.4 0.8
23/03:30pm 24.7 23.6 14.3 52 6.2 NNE 13 24 7 13 1010.1 1010.0 0.8
23/03:00pm 24.4 23.5 13.7 51 6.3 ENE 11 19 6 10 1010.3 1010.2 0.8
23/02:30pm 23.0 22.3 13.3 54 5.6 E 9 17 5 9 1011.1 1011.0 0.8
23/02:00pm 21.7 22.1 13.6 60 4.7 NE 4 9 2 5 1011.9 1011.8 0.8
23/01:30pm 22.3 20.1 13.3 56 5.2 W 17 30 9 16 1012.9 1012.8 0.6
23/01:00pm 23.4 23.1 15.4 60 4.8 WNW 11 19 6 10 1012.4 1012.3 0.6
23/12:30pm 21.1 21.5 17.2 78 2.4 WNW 11 20 6 11 1012.6 1012.5 0.6
23/12:00pm 21.0 21.6 16.9 77 2.5 W 9 13 5 7 1012.5 1012.4 0.6
23/11:30am 21.0 22.4 17.9 82 1.9 NW 7 11 4 6 1013.0 1012.9 0.6
23/11:00am 21.7 22.1 16.2 71 3.3 NW 9 15 5 8 1012.5 1012.4 0.2
23/10:30am 21.7 23.5 17.5 77 2.6 N 4 9 2 5 1012.1 1012.0 0.2
23/10:00am 22.6 22.4 15.6 64 4.2 NW 11 17 6 9 1011.8 1011.7 0.0
23/09:30am 24.4 24.2 13.7 51 6.3 N 7 9 4 5 1010.4 1010.3 0.0
23/09:00am 24.4 25.1 14.5 54 5.9 NNW 4 11 2 6 1010.1 1010.0 3.8
23/08:30am 24.3 25.7 15.5 58 5.3 SSE 2 7 1 4 1009.6 1009.5 3.8
23/08:00am 22.5 23.5 15.3 63 4.3 ESE 4 9 2 5 1009.5 1009.4 3.8
23/07:30am 20.1 20.7 15.9 77 2.5 NE 7 13 4 7 1009.8 1009.7 3.8
23/07:00am 19.8 21.7 16.7 82 1.9 E 2 7 1 4 1009.3 1009.2 3.8
23/06:30am 19.1 20.4 16.1 83 1.8 E 4 9 2 5 1008.6 1008.5 3.8
23/06:00am 19.0 20.0 16.3 84 1.6 W 6 13 3 7 1008.2 1008.0 3.8
23/05:30am 19.2 21.5 16.7 85 1.5 CALM 0 4 0 2 1007.9 1007.7 3.8
23/05:00am 19.6 20.7 15.7 78 2.3 SE 4 7 2 4 1008.0 1007.8 3.8
23/04:30am 19.8 20.3 15.6 77 2.5 E 7 11 4 6 1008.9 1008.8 3.6
23/04:00am 19.8 20.5 16.0 79 2.3 NNE 7 15 4 8 1009.4 1009.3 3.6
23/03:30am 19.8 20.6 16.3 80 2.1 NNE 7 11 4 6 1009.4 1009.3 3.6
23/03:00am 19.9 20.6 15.7 77 2.5 ENE 6 11 3 6 1009.2 1009.1 3.4
23/02:30am 19.9 20.3 16.2 79 2.2 ENE 9 20 5 11 1009.5 1009.4 3.2
23/02:00am 20.0 22.6 17.4 85 1.6 CALM 0 6 0 3 1009.4 1009.3 2.6
23/01:30am 20.3 21.3 16.9 81 2.1 E 7 9 4 5 1009.6 1009.5 2.2
23/01:00am 20.6 21.2 16.8 79 2.3 NE 9 17 5 9 1009.8 1009.7 2.2
23/12:30am 22.1 22.8 15.6 66 3.9 NNE 6 9 3 5 1009.1 1009.0 1.6
23/12:00am 21.3 23.6 17.8 80 2.2 SE 2 7 1 4 1008.9 1008.8 1.6
 
Date/Time
CDT
Temp
°C
App
Temp
°C
Dew
Point
°C
Rel
Hum
%
Delta-T
°C
Wind Press
QNH
hPa
Press
MSL
hPa
Rain since
9am
mm
Dir  Spd
km/h
Gust
km/h
Spd
kts
Gust
kts
22/11:30pm 21.2 23.2 16.1 72 3.1 CALM 0 9 0 5 1009.0 1008.9 1.6
22/11:00pm 20.8 20.8 15.1 70 3.4 SE 9 17 5 9 1009.5 1009.4 1.6
22/10:30pm 20.4 20.4 16.3 77 2.5 ENE 11 19 6 10 1011.1 1011.0 1.0
22/10:00pm 21.9 23.3 16.5 71 3.3 NE 4 9 2 5 1012.1 1012.0 0.2
22/09:30pm 23.9 23.3 14.7 56 5.5 N 11 19 6 10 1012.3 1012.2 0.0
22/09:00pm 23.8 25.0 14.9 57 5.3 N 2 9 1 5 1011.5 1011.4 0.0
22/08:30pm 24.2 24.9 14.4 54 5.8 NE 4 9 2 5 1011.8 1011.7 0.0
22/08:00pm 24.9 25.1 14.1 51 6.4 WSW 6 13 3 7 1011.3 1011.2 0.0
22/07:30pm 25.7 23.8 13.0 45 7.4 W 15 22 8 12 1010.7 1010.6 0.0
22/07:00pm 27.4 26.7 13.2 41 8.4 SW 9 15 5 8 1009.8 1009.7 0.0
22/06:30pm 28.7 27.3 12.1 35 9.7 WSW 11 15 6 8 1009.4 1009.3 0.0
22/06:00pm 30.7 29.2 10.5 28 11.6 SSW 9 17 5 9 1009.3 1009.2 0.0
22/05:30pm 29.7 27.6 11.2 31 10.7 S 13 20 7 11 1009.0 1008.9 0.0
22/05:00pm 28.7 26.0 10.4 32 10.4 SSW 15 22 8 12 1009.0 1008.9 0.0
22/04:30pm 28.5 25.3 9.8 31 10.5 SW 17 28 9 15 1009.3 1009.2 0.0
22/04:00pm 29.2 25.9 10.9 32 10.5 SSW 19 39 10 21 1009.7 1009.6 0.0
22/03:30pm 27.2 23.9 11.0 36 9.2 SW 19 32 10 17 1010.3 1010.2 0.0
22/03:00pm 28.5 25.5 10.5 32 10.2 WSW 17 26 9 14 1010.5 1010.4 0.0
22/02:30pm 28.2 24.4 7.7 27 11.1 SW 17 22 9 12 1010.4 1010.3 0.0
22/02:00pm 28.9 25.4 8.8 28 11.1 SW 17 30 9 16 1010.6 1010.5 0.0
22/01:30pm 32.1 28.6 8.8 23 13.1 WNW 17 33 9 18 1010.2 1010.1 0.0
22/01:00pm 33.4 28.6 5.4 17 15.0 WNW 20 30 11 16 1010.3 1010.2 0.0
22/12:30pm 34.9 31.2 4.4 15 16.2 WNW 13 22 7 12 1010.3 1010.2 0.0
22/12:00pm 34.0 30.3 6.3 18 15.1 W 15 24 8 13 1010.7 1010.6 0.0
22/11:30am 33.6 29.9 6.4 18 14.8 WNW 15 26 8 14 1010.9 1010.8 0.0
22/11:00am 31.9 29.2 9.0 24 12.9 W 13 20 7 11 1011.3 1011.2 0.0
22/10:30am 34.1 29.4 2.9 14 16.1 N 17 32 9 17 1011.2 1011.1 0.0
22/10:00am 33.2 27.8 1.5 13 15.9 NNE 19 32 10 17 1011.3 1011.2 0.0
22/09:30am 32.3 28.0 3.3 16 14.9 NNE 15 26 8 14 1011.4 1011.3 0.0
22/09:00am 31.5 27.8 4.5 18 14.1 NNE 13 26 7 14 1011.6 1011.5 0.0
22/08:30am 30.5 26.1 2.7 17 14.0 NNE 15 28 8 15 1011.5 1011.4 0.0
22/08:00am 29.6 25.7 3.3 18 13.3 NNE 13 22 7 12 1011.4 1011.3 0.0
22/07:30am 28.6 25.1 3.7 20 12.6 NNE 11 19 6 10 1011.3 1011.2 0.0
22/07:00am 27.1 24.0 3.8 22 11.7 NE 9 19 5 10 1011.0 1010.9 0.0
22/06:30am 26.6 23.5 3.8 23 11.4 NE 9 19 5 10 1010.8 1010.7 0.0
22/06:00am 26.7 23.6 3.7 22 11.5 NE 9 17 5 9 1010.6 1010.5 0.0
22/05:30am 27.1 23.5 2.8 21 12.0 NE 11 19 6 10 1010.4 1010.3 0.0
22/05:00am 27.3 23.7 2.8 20 12.1 NE 11 20 6 11 1010.3 1010.2 0.0
22/04:30am 27.1 23.5 3.1 21 11.9 NNE 11 19 6 10 1010.3 1010.2 0.0
22/04:00am 27.2 24.0 3.0 21 12.0 NE 9 22 5 12 1010.2 1010.1 0.0
22/03:30am 27.7 24.4 2.6 20 12.4 NNE 9 20 5 11 1010.3 1010.2 0.0
22/03:00am 28.2 24.5 2.5 19 12.7 NE 11 20 6 11 1010.2 1010.1 0.0
22/02:30am 28.5 25.2 2.4 18 12.9 NE 9 22 5 12 1010.4 1010.3 0.0
22/02:00am 28.2 25.1 3.6 20 12.4 NE 9 19 5 10 1010.6 1010.5 0.0
22/01:30am 28.2 25.4 3.2 20 12.5 ENE 7 19 4 10 1010.8 1010.7 0.0
22/01:00am 28.2 24.9 2.5 19 12.7 ENE 9 17 5 9 1011.1 1011.0 0.0
22/12:30am 28.2 25.5 3.6 20 12.4 ENE 7 15 4 8 1011.3 1011.2 0.0
22/12:00am 27.9 25.1 3.0 20 12.4 ENE 7 11 4 6 1011.4 1011.3 0.0
 
Date/Time
CDT
Temp
°C
App
Temp
°C
Dew
Point
°C
Rel
Hum
%
Delta-T
°C
Wind Press
QNH
hPa
Press
MSL
hPa
Rain since
9am
mm
Dir  Spd
km/h
Gust
km/h
Spd
kts
Gust
kts
21/11:30pm 28.4 25.1 2.6 19 12.8 ENE 9 15 5 8 1011.6 1011.5 0.0
21/11:00pm 28.5 25.3 3.1 19 12.7 ENE 9 15 5 8 1011.7 1011.6 0.0
21/10:30pm 28.2 25.7 4.9 22 12.0 ENE 7 13 4 7 1011.9 1011.8 0.0
21/10:00pm 28.5 25.9 4.2 21 12.4 ENE 7 11 4 6 1012.1 1012.0 0.0
21/09:30pm 28.7 26.3 5.2 22 12.2 E 7 11 4 6 1012.0 1011.9 0.0
21/09:00pm 28.4 26.8 8.0 27 11.1 E 6 11 3 6 1011.7 1011.6 0.0
21/08:30pm 29.7 28.1 8.2 26 11.8 E 6 9 3 5 1011.6 1011.5 0.0
21/08:00pm 31.3 29.1 6.4 21 13.4 ENE 7 13 4 7 1011.4 1011.3 0.0
21/07:30pm 33.0 29.4 2.7 14 15.5 ENE 11 20 6 11 1011.2 1011.1 0.0
21/07:00pm 33.6 29.7 0.9 12 16.3 ENE 11 24 6 13 1010.9 1010.8 0.0
21/06:30pm 33.6 29.8 -1.0 11 16.7 ENE 9 22 5 12 1010.9 1010.8 0.0
21/06:00pm 34.1 30.1 0.4 12 16.7 NE 11 19 6 10 1010.9 1010.8 0.0
21/05:30pm 33.7 30.1 0.7 12 16.4 NE 9 19 5 10 1011.0 1010.9 0.0
21/05:00pm 34.8 30.2 1.4 12 16.9 NE 15 33 8 18 1011.3 1011.2 0.0
21/04:30pm 34.4 30.3 2.5 13 16.4 NE 13 28 7 15 1011.3 1011.2 0.0

Latest Capital City Observations: Canberra | Sydney | Melbourne | Brisbane | Adelaide | Perth | Hobart | Darwin

Other Formats:

Comma delimited format used in spreadsheet applications
http://www.bom.gov.au/fwo/IDS60901/IDS60901.94675.axf

JavaScript Object Notation format (JSON) in row-major order
http://www.bom.gov.au/fwo/IDS60901/IDS60901.94675.json